航空気象通報

ウインドサーファーのための航空気象通報による風予報です。

7/14-7/16の航空気象通報

2017年07月15日 00時03分35秒 | TAF
羽田空港
TAF RJTT 141105Z 1412/1518 19010KT 9999 FEW025
日本時間14日21時-16日03時:190度から10ノットの風


静岡空港
TAF RJNS 141106Z 1412/1518 30004KT 9999 FEW015
TEMPO 1413/1416 FEW005 BKN008
BECMG 1500/1503 24012KT
日本時間14日21時-15日09時:300度から4ノットの風
09-12時:風が変化
12時-16日03時:240度から12ノットの風


福岡空港
TAF RJFF 141106Z 1412/1518 34005KT 9999 FEW030
BECMG 1412/1414 15010KT
BECMG 1500/1503 32010KT
BECMG 1512/1515 15005KT
日本時間14日21時:340度から5ノットの風
21-23時:風が変化
23時-15日09時:150度から10ノットの風
09-12時:風が変化
12-21時:320度から10ノットの風
21-24時:風が変化
16日00-03時:150度から5ノットの風


那覇空港
TAF ROAH 141105Z 1412/1518 14005KT 9999 FEW020
日本時間14日21時-16日03時:140度から5ノットの風


石垣空港
TAF ROIG 141108Z 1412/1518 14005KT 9999 FEW020
BECMG 1503/1506 11008KT
日本時間14日21時-15日12時:140度から5ノットの風
12-15時:風が変化
15時-16日03時:110度から8ノットの風


マウイのカフルイ空港
PHOG 141141Z 1412/1512 06009KT P6SM VCSH FEW030 BKN050
FM142000 05018G26KT P6SM FEW030 SCT050 AMD LTD TO VIS AND WIND TIL 141600
ハワイ時間14日02-10時:060度から9ノットの風

10時-15日02時:050度から18ノット、突風26ノット


サイパン空港
TAF PGSN 141124Z 1412/1512 09012KT P6SM VCSH SCT020 BKN110
マリアナ時間14日22時-15日22時:090度から12ノットの風

ジャンル:
お天気
コメント   この記事についてブログを書く
この記事をはてなブックマークに追加
« 7/12-7/14の航空気象通報 | トップ | 7/15-7/17の航空気象通報 »
最近の画像もっと見る

コメントを投稿

ブログ作成者から承認されるまでコメントは反映されません。

TAF」カテゴリの最新記事

トラックバック

この記事のトラックバック  Ping-URL
ブログ作成者から承認されるまでトラックバックは反映されません。
  • 30日以上前の記事に対するトラックバックは受け取らないよう設定されております。
  • 送信元の記事内容が半角英数のみのトラックバックは受け取らないよう設定されております。
  • このブログへのリンクがない記事からのトラックバックは受け取らないよう設定されております。
  • ※ブログ管理者のみ、編集画面で設定の変更が可能です。